Data for 08/28/2006

Time Sea-Level Adjusted Pressure Absolute Pressure Temperature Relative Humidity Dew Point   
(mb) (inHg) (mb) (inHg) (C) (F) (%) (C) (F)
00:05 1023 30.21 852 25.16 17.5 63.5 40 3.7 38.7
00:10 1023 30.21 852 25.16 17.7 63.8 39 3.6 38.6
00:15 1023 30.21 852 25.16 17.8 64 39 3.7 38.7
00:20 1023 30.21 852 25.16 17.7 63.9 39 3.9 38.9
00:25 1023 30.21 852 25.16 17.6 63.6 40 3.9 39
00:30 1023 30.21 852 25.16 17.4 63.2 40 3.8 38.8
00:35 1023 30.21 852 25.16 17.2 63 42 4.4 39.9
00:40 1023 30.21 852 25.16 16.5 61.6 44 4.3 39.7
00:45 1023 30.21 852 25.16 16 60.8 45 4.1 39.4
00:50 1023 30.21 852 25.16 15.9 60.7 44 3.9 39
00:55 1023 30.21 852 25.16 15.6 60.1 45 3.8 38.9
01:00 1023 30.21 852 25.16 15.6 60 45 3.9 39
01:05 1023 30.21 852 25.16 15.4 59.8 45 3.8 38.8
01:10 1023 30.21 852 25.16 15.4 59.7 48 4.5 40.1
01:15 1023 30.21 852 25.16 15.1 59.2 46 3.8 38.8
01:20 1023 30.21 852 25.16 15.3 59.6 45 3.4 38.1
01:25 1023 30.21 852 25.16 16 60.7 44 3.7 38.6
01:30 1023 30.21 852 25.16 15 59.1 49 4.6 40.3
01:35 1023 30.21 852 25.16 15 59 46 3.5 38.2
01:40 1023 30.21 852 25.16 14.9 58.9 49 4.4 40
01:45 1023 30.21 852 25.16 15 59 45 3.3 37.9
01:50 1023 30.21 853 25.19 15 59.1 46 3.5 38.3
01:55 1023 30.21 852 25.16 15 59.1 46 3.6 38.4
02:00 1023 30.21 852 25.16 14.9 58.9 46 3.5 38.3
02:05 1023 30.21 852 25.16 14.9 58.7 48 4 39.2
02:10 1023 30.21 852 25.16 15 59 46 3.4 38.2
02:15 1023 30.21 852 25.16 15 59 46 3.6 38.6
02:20 1023 30.21 853 25.19 15.1 59.1 45 3.4 38.2
02:25 1023 30.21 852 25.16 15.2 59.3 47 4 39.2
02:30 1023 30.21 852 25.16 15.3 59.5 45 3.4 38.1
02:35 1023 30.21 852 25.16 15.1 59.1 46 3.6 38.4
02:40 1023 30.21 852 25.16 15 58.9 46 3.5 38.3
02:45 1023 30.21 852 25.16 14.9 58.9 46 3.6 38.5
02:50 1023 30.21 852 25.16 14.9 58.9 49 4.3 39.8
02:55 1023 30.21 852 25.16 14.9 58.7 46 3.6 38.4
03:00 1023 30.21 852 25.16 15.1 59.1 47 3.9 39
03:05 1023 30.21 852 25.16 15.5 59.8 45 3.6 38.5
03:10 1023 30.21 852 25.16 15.3 59.5 50 4.9 40.8
03:15 1023 30.21 852 25.16 15.2 59.3 45 3.5 38.3
03:20 1023 30.21 852 25.16 15.2 59.4 45 3.5 38.4
03:25 1023 30.21 853 25.19 15.2 59.4 46 3.7 38.7
03:30 1023 30.21 853 25.19 15.2 59.3 45 3.5 38.4
03:35 1023 30.21 853 25.19 15.2 59.4 49 4.7 40.5
03:40 1023 30.21 853 25.19 15.4 59.7 45 3.6 38.4
03:45 1023 30.21 853 25.19 15.3 59.6 47 4.1 39.5
03:50 1023 30.21 853 25.19 15 59.1 46 3.6 38.6
03:55 1024 30.24 853 25.19 14.9 58.9 49 4.3 39.7
04:00 1024 30.24 853 25.19 15.2 59.3 45 3.4 38.2
04:05 1023 30.21 853 25.19 15.1 59.1 47 3.9 39
04:10 1023 30.21 853 25.19 14.8 58.7 47 3.7 38.6
04:15 1023 30.21 853 25.19 14.4 57.9 48 3.6 38.4
04:20 1023 30.21 853 25.19 14.2 57.6 50 3.9 39.1
04:25 1023 30.21 853 25.19 14 57.1 49 3.6 38.5
04:30 1023 30.21 853 25.19 13.9 56.9 48 3.2 37.7
04:35 1023 30.21 853 25.19 14.3 57.7 48 3.4 38.1
04:40 1023 30.21 853 25.19 14.1 57.4 49 3.5 38.3
04:45 1023 30.21 853 25.19 13.6 56.6 50 3.6 38.4
04:50 1023 30.21 853 25.19 13.8 56.9 48 3.1 37.5
04:55 1023 30.21 853 25.19 14.5 58.1 46 3.2 37.7
05:00 1023 30.21 853 25.19 14.5 58.1 47 3.4 38.2
05:05 1023 30.21 853 25.19 14.6 58.2 46 3.2 37.7
05:10 1023 30.21 853 25.19 14.5 58.1 47 3.4 38.1
05:15 1023 30.21 853 25.19 14.4 57.9 47 3.2 37.7
05:20 1023 30.21 853 25.19 14.4 57.9 47 3.4 38.1
05:25 1024 30.24 853 25.19 14.4 57.9 47 3.2 37.8
05:30 1024 30.24 853 25.19 14.7 58.5 46 3.1 37.7
05:35 1024 30.24 853 25.19 14.9 58.8 46 3.3 37.9
05:40 1024 30.24 853 25.19 14.5 58.1 47 3.5 38.2
05:45 1024 30.24 853 25.19 14 57.1 49 3.5 38.3
05:50 1024 30.24 853 25.19 13.7 56.6 50 3.6 38.5
05:55 1024 30.24 853 25.19 13.2 55.8 51 3.5 38.2
06:00 1024 30.24 853 25.19 13.1 55.6 52 3.4 38.2
06:05 1024 30.24 853 25.19 13.2 55.7 50 3.1 37.7
06:10 1023 30.21 853 25.19 13.4 56.2 49 3 37.5
06:15 1023 30.21 853 25.19 13.6 56.5 49 3.3 37.9
06:20 1023 30.21 853 25.19 13.7 56.6 49 3.4 38
06:25 1024 30.24 853 25.19 13.8 56.8 49 3.4 38.1
06:30 1024 30.24 853 25.19 13.8 56.9 49 3.4 38
06:35 1024 30.24 853 25.19 13.9 57 49 3.4 38.1
06:40 1024 30.24 853 25.19 13.8 56.8 50 3.6 38.5
06:45 1024 30.24 853 25.19 13.3 56 52 3.6 38.5
06:50 1024 30.24 853 25.19 12.8 55.1 53 3.4 38.1
06:55 1024 30.24 853 25.19 12.6 54.7 53 3.4 38.1
07:00 1024 30.24 853 25.19 12.6 54.7 53 3.4 38.1
07:05 1024 30.24 853 25.19 12.7 54.8 52 3.1 37.5
07:10 1024 30.24 853 25.19 13.1 55.6 51 3.2 37.8
07:15 1024 30.24 853 25.19 13.2 55.7 51 3.5 38.2
07:20 1024 30.24 853 25.19 13.1 55.7 52 3.5 38.3
07:25 1024 30.24 853 25.19 13.2 55.8 51 3.3 38
07:30 1024 30.24 853 25.19 13.6 56.6 49 3.2 37.8
07:35 1024 30.24 853 25.19 13.9 56.9 50 3.6 38.5
07:40 1024 30.24 853 25.19 14.1 57.5 49 3.6 38.5
07:45 1024 30.24 853 25.19 14.3 57.7 49 3.8 38.8
07:50 1024 30.24 853 25.19 14.2 57.6 50 4 39.3
07:55 1024 30.24 853 25.19 14.2 57.6 47 3.3 38
08:00 1024 30.24 853 25.19 14.8 58.7 48 4.1 39.4
08:05 1024 30.24 853 25.19 15.3 59.5 47 4.1 39.4
08:10 1024 30.24 853 25.19 15.5 59.9 46 4.1 39.3
08:15 1024 30.24 853 25.19 15.8 60.4 45 3.8 38.9
08:20 1024 30.24 853 25.19 16 60.7 46 4.3 39.8
08:25 1024 30.24 853 25.19 16.2 61.2 47 4.9 40.9
08:30 1024 30.24 853 25.19 16.3 61.4 46 4.8 40.6
08:35 1024 30.24 853 25.19 16.2 61.1 45 4.3 39.8
08:40 1024 30.24 853 25.19 16.7 62 45 4.9 40.9
08:45 1024 30.24 853 25.19 17.1 62.7 42 4 39.3
08:50 1024 30.24 853 25.19 17.5 63.5 41 4.4 39.9
08:55 1024 30.24 853 25.19 17.9 64.2 41 4.4 39.9
09:00 1024 30.24 853 25.19 17.9 64.2 42 5 41
09:05 1024 30.24 853 25.19 18.4 65.1 41 5 40.9
09:10 1024 30.24 853 25.19 18.5 65.3 41 5.1 41.2
09:15 1024 30.24 853 25.19 19.2 66.6 39 4.9 40.9
09:20 1024 30.24 853 25.19 20.1 68.2 38 5.6 42.1
09:25 1024 30.24 853 25.19 19.3 66.8 40 5.6 42
09:30 1024 30.24 853 25.19 18.8 65.9 41 5.4 41.7
09:35 1024 30.24 853 25.19 18.9 66.1 40 5.1 41.2
09:40 1024 30.24 853 25.19 19.3 66.7 38 4.9 40.8
09:45 1024 30.24 853 25.19 19 66.2 39 4.9 40.9
09:50 1024 30.24 853 25.19 19.1 66.4 39 4.8 40.7
09:55 1023 30.21 853 25.19 19.6 67.3 37 4.8 40.7
10:00 1023 30.21 853 25.19 20.1 68.1 35 4.4 40
10:05 1023 30.21 853 25.19 20.2 68.4 37 5.3 41.6
10:10 1023 30.21 853 25.19 20.6 69.1 35 4.6 40.3
10:15 1023 30.21 853 25.19 21.6 70.9 33 4.8 40.7
10:20 1023 30.21 853 25.19 21.7 71 34 5.3 41.6
10:25 1023 30.21 853 25.19 21.8 71.2 32 4.6 40.2
10:30 1023 30.21 852 25.16 22.1 71.8 32 4.9 40.8
10:35 1023 30.21 852 25.16 22.1 71.8 33 5.4 41.7
10:40 1023 30.21 852 25.16 22.1 71.9 32 5.1 41.2
10:45 1023 30.21 852 25.16 22.8 73.1 31 5.2 41.4
10:50 1023 30.21 852 25.16 23.1 73.6 32 5.6 42
10:55 1023 30.21 852 25.16 23 73.4 32 5.4 41.8
11:00 1023 30.21 852 25.16 22.6 72.7 33 5.6 42
11:05 1023 30.21 852 25.16 22.9 73.1 32 5.6 42
11:10 1023 30.21 852 25.16 23.5 74.3 29 4.9 40.7
11:15 1023 30.21 852 25.16 23.4 74.1 31 5.4 41.7
11:20 1023 30.21 852 25.16 23.9 74.9 29 4.9 40.8
11:25 1023 30.21 852 25.16 23.6 74.4 30 5.3 41.5
11:30 1023 30.21 852 25.16 23.4 74 29 4.6 40.3
11:35 1023 30.21 852 25.16 24 75.2 28 4.6 40.3
11:40 1023 30.21 852 25.16 25.3 77.5 27 5.1 41.1
11:45 1023 30.21 852 25.16 25.4 77.8 27 5.3 41.5
11:50 1023 30.21 852 25.16 25.4 77.7 26 4.8 40.6
11:55 1023 30.21 852 25.16 25.6 78.1 26 5.1 41.2
12:00 1023 30.21 852 25.16 26 78.7 25 4.9 40.7
12:05 1022 30.18 852 25.16 25.5 77.8 25 4.1 39.3
12:10 1022 30.18 852 25.16 26.1 78.9 25 4.8 40.6
12:15 1022 30.18 852 25.16 27 80.6 22 3.8 38.8
12:20 1022 30.18 851 25.13 27.6 81.7 22 4 39.2
12:25 1022 30.18 851 25.13 26.6 79.8 23 4.1 39.4
12:30 1022 30.18 851 25.13 26.9 80.4 20 2 35.7
12:35 1022 30.18 851 25.13 27.4 81.2 20 3 37.3
12:40 1022 30.18 851 25.13 27 80.6 19 1.4 34.6
12:45 1022 30.18 851 25.13 27.9 82.1 16 -0.1 31.7
12:50 1022 30.18 851 25.13 28.3 82.9 17 1.1 34
12:55 1022 30.18 851 25.13 28.8 83.8 17 1.9 35.4
13:00 1022 30.18 851 25.13 28.8 83.8 15 0.3 32.5
13:05 1022 30.18 851 25.13 29.1 84.5 14 -0.6 31
13:10 1022 30.18 851 25.13 28.4 83.2 15 -0.2 31.7
13:15 1022 30.18 851 25.13 28.7 83.7 15 -0.3 31.5
13:20 1022 30.18 851 25.13 29.1 84.4 14 -0.4 31.3
13:25 1022 30.18 851 25.13 29.1 84.3 15 0.1 32.1
13:30 1021 30.15 851 25.13 28.6 83.6 15 -0.6 31
13:35 1021 30.15 851 25.13 29.2 84.5 15 0.1 32.1
13:40 1021 30.15 851 25.13 29.5 85.1 15 0.2 32.4
13:45 1021 30.15 850 25.1 28.6 83.5 15 -0.3 31.5
13:50 1021 30.15 850 25.1 29.8 85.6 14 -0 31.9
13:55 1021 30.15 850 25.1 29.8 85.6 14 0.1 32.2
14:00 1021 30.15 850 25.1 28.7 83.6 15 -0.2 31.6
14:05 1021 30.15 850 25.1 28.8 83.8 15 -0.3 31.4
14:10 1021 30.15 850 25.1 27.9 82.1 16 -0.3 31.5
14:15 1021 30.15 850 25.1 28.1 82.7 15 -0.7 30.7
14:20 1021 30.15 850 25.1 27.9 82.1 15 -0.6 30.9
14:25 1021 30.15 850 25.1 28.5 83.3 15 0 32
14:30 1021 30.15 850 25.1 28.8 83.8 15 -0 32
14:35 1021 30.15 850 25.1 29.4 84.9 14 -0.1 31.8
14:40 1021 30.15 850 25.1 29.1 84.4 14 -0.3 31.4
14:45 1021 30.15 850 25.1 28.7 83.6 15 0.2 32.4
14:50 1020 30.12 850 25.1 29.1 84.4 14 -0.5 31.1
14:55 1020 30.12 850 25.1 29.1 84.3 15 0.1 32.3
15:00 1020 30.12 850 25.1 28.5 83.3 15 -0.5 31.1
15:05 1020 30.12 850 25.1 27.9 82.3 15 -0.6 30.9
15:10 1020 30.12 849 25.07 28.8 83.8 15 -0.5 31.2
15:15 1020 30.12 849 25.07 29.4 85 16 0.9 33.6
15:20 1020 30.12 849 25.07 30.1 86.1 15 0.6 33.1
15:25 1020 30.12 849 25.07 30.3 86.5 14 -0.1 31.7
15:30 1020 30.12 849 25.07 29.9 85.9 14 -0.3 31.5
15:35 1020 30.12 849 25.07 30 86.1 14 -0.1 31.9
15:40 1020 30.12 849 25.07 30 86.1 14 0.4 32.8
15:45 1020 30.12 849 25.07 29.9 85.7 14 -0.1 31.8
15:50 1020 30.12 849 25.07 29.7 85.4 15 0.9 33.6
15:55 1020 30.12 849 25.07 30 85.9 15 0.7 33.3
16:00 1020 30.12 849 25.07 30 86 15 0.9 33.5
16:05 1020 30.12 849 25.07 29.6 85.2 15 0.2 32.4
16:10 1020 30.12 849 25.07 29.9 85.9 14 0.1 32.3
16:15 1020 30.12 849 25.07 30.7 87.3 14 0.6 33.1
16:20 1019 30.09 849 25.07 30.2 86.4 14 -0.1 31.9
16:25 1019 30.09 849 25.07 29.8 85.6 15 0.4 32.7
16:30 1019 30.09 848 25.04 29.6 85.2 14 -0.2 31.6
16:35 1019 30.09 848 25.04 29.7 85.5 14 -0.4 31.3
16:40 1019 30.09 848 25.04 30 85.9 14 0.4 32.7
16:45 1019 30.09 848 25.04 30.4 86.8 14 0 32
16:50 1019 30.09 848 25.04 30.6 87.1 13 -0.2 31.6
16:55 1019 30.09 848 25.04 30.6 87.1 14 0.1 32.1
17:00 1019 30.09 848 25.04 29.7 85.5 14 -0.1 31.8
17:05 1019 30.09 848 25.04 29.9 85.8 14 0.1 32.2
17:10 1019 30.09 848 25.04 29.9 85.8 14 0 32
17:15 1019 30.09 848 25.04 29.1 84.4 14 -0.5 31.2
17:20 1019 30.09 848 25.04 29.3 84.7 15 -0.1 31.8
17:25 1019 30.09 848 25.04 29.6 85.3 14 0.1 32.1
17:30 1019 30.09 848 25.04 29.9 85.7 14 -0.5 31.2
17:35 1019 30.09 848 25.04 29.9 85.9 14 -0.3 31.5
17:40 1019 30.09 848 25.04 30 86 15 0.6 33
17:45 1019 30.09 848 25.04 29.9 85.7 15 0.7 33.2
17:50 1018 30.06 848 25.04 29.9 85.9 14 0.1 32.2
17:55 1018 30.06 848 25.04 30 86.1 14 0 32.1
18:00 1018 30.06 848 25.04 29.9 85.7 15 0.9 33.7
18:05 1018 30.06 847 25.01 29.6 85.2 14 -0.3 31.5
18:10 1018 30.06 847 25.01 29.8 85.7 14 -0 31.9
18:15 1018 30.06 847 25.01 30.4 86.6 14 0.4 32.7
18:20 1018 30.06 847 25.01 30.3 86.5 14 0.1 32.2
18:25 1018 30.06 847 25.01 30.2 86.3 14 0.5 32.9
18:30 1018 30.06 847 25.01 30 86.1 16 1.6 34.9
18:35 1018 30.06 847 25.01 29 84.1 15 0.4 32.8
18:40 1018 30.06 847 25.01 28.5 83.4 16 0.4 32.8
18:45 1018 30.06 847 25.01 28.5 83.2 16 0.7 33.3
18:50 1018 30.06 847 25.01 28.4 83 18 2.1 35.8
18:55 1018 30.06 847 25.01 28.4 83 16 0.3 32.5
19:00 1018 30.06 847 25.01 28.2 82.8 16 0.3 32.5
19:05 1018 30.06 847 25.01 28 82.4 16 -0.1 31.9
19:10 1018 30.06 847 25.01 28 82.4 19 2.5 36.5
19:15 1018 30.06 847 25.01 28.2 82.7 16 0.5 32.9
19:20 1018 30.06 847 25.01 28.1 82.5 17 1.3 34.3
19:25 1018 30.06 847 25.01 27.8 82.1 18 1.4 34.5
19:30 1018 30.06 847 25.01 27.6 81.7 18 1.7 35.1
19:35 1018 30.06 847 25.01 27.3 81.1 19 1.9 35.4
19:40 1018 30.06 847 25.01 27 80.6 21 2.9 37.1
19:45 1018 30.06 847 25.01 26.5 79.6 22 3.3 37.9
19:50 1018 30.06 847 25.01 26.2 79.2 22 3.2 37.7
19:55 1018 30.06 847 25.01 26 78.8 23 3.3 37.9
20:00 1018 30.06 847 25.01 25.7 78.3 23 3.4 38
20:05 1018 30.06 847 25.01 25.5 77.9 23 3.3 37.9
20:10 1018 30.06 847 25.01 25.4 77.7 23 3.3 37.9
20:15 1018 30.06 847 25.01 25.2 77.4 23 3.2 37.7
20:20 1018 30.06 847 25.01 25.1 77.3 24 3.2 37.7
20:25 1018 30.06 847 25.01 25 77 24 3.1 37.6
20:30 1018 30.06 847 25.01 24.8 76.6 24 3.3 37.9
20:35 1018 30.06 847 25.01 24.7 76.4 24 3.1 37.6
20:40 1018 30.06 847 25.01 24.4 75.9 25 3.4 38.1
20:45 1018 30.06 847 25.01 24.1 75.4 25 3.2 37.8
20:50 1018 30.06 847 25.01 24.1 75.3 25 3.2 37.7
20:55 1018 30.06 847 25.01 24.1 75.4 25 3 37.4
21:00 1018 30.06 847 25.01 24.2 75.5 25 3.1 37.6
21:05 1018 30.06 847 25.01 24.1 75.3 25 3 37.3
21:10 1018 30.06 847 25.01 24.1 75.4 25 2.9 37.3
21:15 1018 30.06 847 25.01 24.1 75.3 25 3 37.4
21:20 1018 30.06 848 25.04 24 75.1 25 3 37.4
21:25 1018 30.06 848 25.04 23.8 74.8 26 3.1 37.6
21:30 1018 30.06 848 25.04 23.7 74.6 26 3.1 37.5
21:35 1018 30.06 848 25.04 23.5 74.2 27 3.5 38.3
21:40 1018 30.06 848 25.04 23.1 73.6 27 3.1 37.6
21:45 1018 30.06 848 25.04 23.2 73.8 26 2.9 37.3
21:50 1018 30.06 848 25.04 23.5 74.2 26 3.1 37.5
21:55 1018 30.06 848 25.04 23.3 74 26 3.1 37.5
22:00 1018 30.06 848 25.04 22.8 73 30 4.6 40.3
22:05 1018 30.06 848 25.04 21.3 70.3 31 3.6 38.5
22:10 1018 30.06 848 25.04 21.1 70 31 3.5 38.3
22:15 1018 30.06 847 25.01 21.2 70.1 30 3.2 37.7
22:20 1018 30.06 847 25.01 21.5 70.6 30 3.2 37.7
22:25 1018 30.06 847 25.01 21.7 71 29 3.2 37.8
22:30 1018 30.06 847 25.01 21.5 70.7 30 3.2 37.7
22:35 1018 30.06 847 25.01 21.3 70.3 30 3.4 38.1
22:40 1018 30.06 847 25.01 21.1 70 30 3.2 37.8
22:45 1018 30.06 847 25.01 21 69.8 31 3.3 37.9
22:50 1018 30.06 847 25.01 20.8 69.4 31 3.2 37.8
22:55 1018 30.06 847 25.01 20.8 69.5 31 3.1 37.6
23:00 1018 30.06 847 25.01 21 69.9 30 3 37.5
23:05 1018 30.06 847 25.01 20.9 69.6 31 3.4 38.2
23:10 1018 30.06 847 25.01 20.7 69.3 31 3.1 37.5
23:15 1018 30.06 847 25.01 20.7 69.3 32 3.6 38.5
23:20 1018 30.06 847 25.01 20.6 69 32 3.3 37.9
23:25 1018 30.06 847 25.01 20.5 68.8 31 3 37.3
23:30 1018 30.06 847 25.01 20.4 68.8 31 3 37.4
23:35 1018 30.06 847 25.01 20.3 68.5 31 3 37.3
23:40 1018 30.06 847 25.01 20.2 68.4 32 3 37.4
23:45 1018 30.06 847 25.01 20.1 68.1 32 3.1 37.6
23:50 1018 30.06 847 25.01 20 68 32 3 37.3
23:55 1018 30.06 847 25.01 20 68 32 2.9 37.1
24:00 1018 30.06 847 25.01 20 68 32 3 37.4